New Providence, New Jersey
Current Conditions -  °F | °C
As of 3:45 PM on Tuesday 27 Jan 2015 (Local Time) from KMMU Reporting Station
Broken Clouds Broken Clouds  
Wind Chill: 14°   Ceiling: 25000
Heat Index: 27°   Visibility: 15mi
Dew Point: 18°   Wind: 17mph
Humidity: 69%   Direction: 350°N
Pressure: 29.68"   Gusts: 28mph
Location:  40.71°N, 74.4°W
Report Text: KMMU 272045Z 35015G24KT 15SM FEW050 BKN250 M03/M08 A2968
Loading
Personal Weather Stations






























Interactive Weather Map New forecast layout! Learn more

10-Day Weather Forecast

Advertisements
Track Severe Weather on mobile